Time;durP1;ratioP1;P1;durP2;ratioP2;P2;SDS_P1;SDS_P2;PMS_P1;PMS_P2;Temp;Humidity;BMP_temperature;BMP_pressure;BME280_temperature;BME280_humidity;BME280_pressure;Samples;Min_cycle;Max_cycle;Signal;HPM_P1;HPM_P2
2022/07/16 00:02:26;;;;;;;5.95;1.80;;;16.80;98.30;;;;;;7346675;19;107276;-90
2022/07/16 00:04:53;;;;;;;4.75;1.80;;;16.60;98.90;;;;;;7343083;19;110263;-90
2022/07/16 00:07:20;;;;;;;5.25;2.00;;;16.40;99.20;;;;;;7344973;19;109077;-91
2022/07/16 00:09:47;;;;;;;6.18;2.28;;;16.30;99.30;;;;;;7344053;19;107985;-91
2022/07/16 00:12:15;;;;;;;7.20;1.80;;;16.30;99.20;;;;;;7343623;19;111280;-91
2022/07/16 00:14:42;;;;;;;4.97;1.85;;;16.40;99.10;;;;;;7341545;19;110108;-90
2022/07/16 00:17:09;;;;;;;2.92;1.90;;;16.50;99.00;;;;;;7343517;19;108356;-90
2022/07/16 00:19:36;;;;;;;7.53;1.88;;;16.50;98.90;;;;;;7348794;19;108076;-90
2022/07/16 00:22:04;;;;;;;4.25;2.00;;;16.60;98.80;;;;;;7343873;19;108820;-90
2022/07/16 00:24:31;;;;;;;4.45;2.00;;;16.60;98.90;;;;;;7344730;19;108261;-90
2022/07/16 00:26:58;;;;;;;3.65;1.85;;;16.60;98.90;;;;;;7343438;19;109082;-91
2022/07/16 00:29:25;;;;;;;7.10;1.90;;;16.50;99.50;;;;;;7342536;19;107667;-91
2022/07/16 00:31:53;;;;;;;3.75;2.00;;;16.40;99.70;;;;;;7348008;19;108634;-91
2022/07/16 00:34:21;;;;;;;5.07;1.92;;;16.30;99.70;;;;;;7348029;19;108530;-90
2022/07/16 00:36:49;;;;;;;5.95;2.00;;;16.30;99.60;;;;;;7347639;19;107237;-90
2022/07/16 00:39:17;;;;;;;3.22;1.75;;;16.40;99.70;;;;;;7349971;19;111273;-90
2022/07/16 00:41:47;;;;;;;3.35;1.73;;;16.40;99.60;;;;;;7351250;19;109629;-90
2022/07/16 00:44:16;;;;;;;4.25;1.83;;;16.40;99.90;;;;;;7347777;19;107716;-90
2022/07/16 00:46:49;;;;;;;5.20;1.90;;;16.50;99.70;;;;;;7346964;19;109816;-91
2022/07/16 00:49:19;;;;;;;4.00;1.80;;;16.50;99.70;;;;;;7347503;19;108332;-91
2022/07/16 00:51:49;;;;;;;4.95;1.60;;;16.60;99.90;;;;;;7347709;19;108366;-90
2022/07/16 00:54:16;;;;;;;13.35;2.35;;;16.70;99.90;;;;;;7348454;19;109936;-90
2022/07/16 00:56:44;;;;;;;5.30;1.98;;;16.70;99.70;;;;;;7346907;19;110413;-90
2022/07/16 00:59:12;;;;;;;4.97;2.10;;;16.70;99.60;;;;;;7345542;19;110488;-90
2022/07/16 01:01:39;;;;;;;5.93;2.28;;;16.80;99.90;;;;;;7349051;19;110678;-91
2022/07/16 01:04:11;;;;;;;4.07;1.77;;;16.80;99.70;;;;;;7346905;19;111045;-91
2022/07/16 01:06:39;;;;;;;4.25;1.92;;;16.80;99.70;;;;;;7347797;19;108989;-89
2022/07/16 01:09:08;;;;;;;6.25;2.15;;;16.80;99.70;;;;;;7346726;19;108359;-90
2022/07/16 01:11:35;;;;;;;4.47;2.00;;;16.90;99.80;;;;;;7345482;19;108355;-89
2022/07/16 01:14:03;;;;;;;4.15;2.00;;;16.80;99.80;;;;;;7344343;19;109382;-89
2022/07/16 01:16:30;;;;;;;5.50;2.10;;;16.80;99.70;;;;;;7343753;19;110797;-90
2022/07/16 01:18:58;;;;;;;4.80;2.10;;;16.80;99.60;;;;;;7345248;19;108204;-90
2022/07/16 01:21:25;;;;;;;4.80;2.10;;;16.90;99.70;;;;;;7342902;19;108936;-89
2022/07/16 01:23:52;;;;;;;2.80;1.52;;;16.90;99.50;;;;;;7352513;19;108107;-91
2022/07/16 01:26:19;;;;;;;4.68;2.20;;;16.90;99.50;;;;;;7345805;19;111698;-90
2022/07/16 01:28:47;;;;;;;5.88;2.00;;;16.90;99.40;;;;;;7344702;19;110083;-90
2022/07/16 01:31:14;;;;;;;7.15;2.00;;;16.90;99.70;;;;;;7344881;19;109607;-92
2022/07/16 01:33:42;;;;;;;5.45;2.28;;;16.80;99.60;;;;;;7344759;19;112357;-90
2022/07/16 01:36:10;;;;;;;4.97;2.08;;;16.90;99.70;;;;;;7352913;19;111013;-90
2022/07/16 01:38:43;;;;;;;2.58;2.15;;;16.90;99.60;;;;;;7352309;19;107924;-90
2022/07/16 01:41:11;;;;;;;6.93;2.08;;;16.90;99.80;;;;;;7349133;19;109428;-89
2022/07/16 01:43:38;;;;;;;5.18;2.10;;;16.80;99.90;;;;;;7349905;19;107849;-90
2022/07/16 01:46:06;;;;;;;5.57;2.33;;;16.70;99.90;;;;;;7356692;19;107471;-90
2022/07/16 01:48:33;;;;;;;4.07;2.25;;;16.70;99.90;;;;;;7351384;19;110644;-90
2022/07/16 01:51:00;;;;;;;4.82;2.22;;;16.60;99.90;;;;;;7350783;19;107535;-90
2022/07/16 01:53:29;;;;;;;7.25;2.20;;;16.60;99.90;;;;;;7350927;19;110477;-90
2022/07/16 01:55:58;;;;;;;7.30;2.22;;;16.50;99.90;;;;;;7351416;19;109578;-89
2022/07/16 01:58:25;;;;;;;8.02;2.63;;;16.50;99.90;;;;;;7351640;19;111085;-90
2022/07/16 02:00:53;;;;;;;7.95;1.95;;;16.50;99.90;;;;;;7351440;19;111627;-91
2022/07/16 02:03:21;;;;;;;4.95;2.08;;;16.40;99.90;;;;;;7349560;19;110311;-91
2022/07/16 02:05:48;;;;;;;4.35;2.05;;;16.40;99.90;;;;;;7353323;19;108562;-91
2022/07/16 02:08:16;;;;;;;2.65;2.00;;;16.50;99.90;;;;;;7356275;19;108976;-91
2022/07/16 02:10:43;;;;;;;4.43;1.75;;;16.60;99.90;;;;;;7351213;19;110729;-91
2022/07/16 02:13:10;;;;;;;4.10;2.08;;;16.60;99.90;;;;;;7350350;19;109978;-91
2022/07/16 02:15:37;;;;;;;8.68;2.22;;;16.60;99.90;;;;;;7353487;19;107078;-90
2022/07/16 02:18:04;;;;;;;7.03;2.53;;;16.60;99.90;;;;;;7352668;19;110976;-90
2022/07/16 02:20:31;;;;;;;5.45;1.98;;;16.60;99.90;;;;;;7349903;19;111974;-91
2022/07/16 02:22:59;;;;;;;4.82;2.28;;;16.60;99.90;;;;;;7352057;19;107813;-90
2022/07/16 02:25:26;;;;;;;7.43;2.00;;;16.50;99.90;;;;;;7351651;19;109745;-90
2022/07/16 02:28:08;;;;;;;3.50;2.13;;;16.40;99.90;;;;;;7348619;19;112121;-90
2022/07/16 02:30:41;;;;;;;4.68;1.95;;;16.30;99.90;;;;;;7355748;19;108275;-89
2022/07/16 02:33:09;;;;;;;7.93;2.20;;;16.30;99.90;;;;;;7350015;19;108749;-91
2022/07/16 02:35:37;;;;;;;5.30;2.10;;;16.30;99.90;;;;;;7350349;19;108430;-90
2022/07/16 02:38:06;;;;;;;4.25;2.10;;;16.20;99.90;;;;;;7348612;19;110638;-90
2022/07/16 02:40:37;;;;;;;3.53;1.80;;;16.20;99.90;;;;;;7348176;19;111315;-90
2022/07/16 02:43:06;;;;;;;4.78;2.15;;;16.20;99.90;;;;;;7350490;19;107489;-90
2022/07/16 02:45:35;;;;;;;3.00;2.10;;;16.20;99.90;;;;;;7349280;19;111807;-90
2022/07/16 02:48:03;;;;;;;3.55;2.20;;;16.20;99.90;;;;;;7349102;19;112286;-89
2022/07/16 02:50:30;;;;;;;7.13;2.30;;;16.10;99.90;;;;;;7348789;19;110330;-91
2022/07/16 02:52:57;;;;;;;3.85;2.10;;;16.10;99.90;;;;;;7354455;19;107419;-90
2022/07/16 02:55:24;;;;;;;6.15;2.20;;;16.10;99.90;;;;;;7350865;19;109577;-90
2022/07/16 02:57:51;;;;;;;5.35;2.40;;;16.00;99.90;;;;;;7349181;19;111227;-90
2022/07/16 03:00:19;;;;;;;4.68;2.40;;;16.00;99.90;;;;;;7349920;19;109386;-90
2022/07/16 03:02:46;;;;;;;6.18;2.55;;;16.00;99.90;;;;;;7349490;19;109014;-89
2022/07/16 03:05:14;;;;;;;3.15;2.20;;;16.00;99.90;;;;;;7347708;19;109409;-88
2022/07/16 03:07:42;;;;;;;8.43;2.40;;;16.00;99.90;;;;;;7350004;19;108936;-91
2022/07/16 03:10:11;;;;;;;7.45;2.47;;;15.90;99.90;;;;;;7348485;19;108066;-91
2022/07/16 03:12:38;;;;;;;4.78;2.78;;;15.90;99.90;;;;;;7354125;19;108962;-89
2022/07/16 03:15:07;;;;;;;6.38;3.47;;;15.90;99.90;;;;;;7348081;19;107694;-91
2022/07/16 03:17:35;;;;;;;11.60;3.53;;;15.80;99.90;;;;;;7349450;19;111338;-90
2022/07/16 03:20:03;;;;;;;13.52;3.83;;;15.80;99.90;;;;;;7348155;19;112409;-91
2022/07/16 03:22:30;;;;;;;10.15;4.45;;;15.70;99.90;;;;;;7347390;19;110458;-91
2022/07/16 03:24:57;;;;;;;12.13;5.75;;;15.70;99.90;;;;;;7348739;19;108099;-90
2022/07/16 03:27:24;;;;;;;9.98;2.95;;;15.70;99.90;;;;;;7346614;19;108329;-90
2022/07/16 03:29:51;;;;;;;5.43;3.17;;;15.60;99.90;;;;;;7349798;19;108357;-91
2022/07/16 03:32:18;;;;;;;10.30;2.65;;;15.40;99.90;;;;;;7349948;19;107993;-90
2022/07/16 03:34:45;;;;;;;6.45;2.50;;;15.40;99.90;;;;;;7354151;19;108522;-90
2022/07/16 03:37:12;;;;;;;6.57;2.60;;;15.50;99.90;;;;;;7348911;19;108498;-91
2022/07/16 03:39:39;;;;;;;3.63;2.17;;;15.50;99.90;;;;;;7346249;19;111798;-90
2022/07/16 03:42:06;;;;;;;8.15;2.83;;;15.60;99.90;;;;;;7346651;19;110761;-91
2022/07/16 03:44:34;;;;;;;4.18;3.00;;;15.60;99.90;;;;;;7348431;19;108152;-90
2022/07/16 03:47:01;;;;;;;5.78;3.38;;;15.50;99.90;;;;;;7347428;19;109372;-90
2022/07/16 03:49:28;;;;;;;5.18;2.83;;;15.60;99.90;;;;;;7347553;19;110297;-90
2022/07/16 03:51:55;;;;;;;7.53;3.03;;;15.60;99.90;;;;;;7349641;19;106885;-90
2022/07/16 03:54:23;;;;;;;10.02;2.85;;;15.50;99.90;;;;;;7348063;19;110419;-90
2022/07/16 03:56:50;;;;;;;6.05;3.00;;;15.50;99.90;;;;;;7354561;19;108148;-90
2022/07/16 03:59:17;;;;;;;3.42;2.63;;;15.50;99.90;;;;;;7347208;19;108901;-90
2022/07/16 04:01:44;;;;;;;8.43;2.67;;;15.40;99.90;;;;;;7346195;19;107547;-90
2022/07/16 04:04:11;;;;;;;6.25;3.10;;;15.50;99.90;;;;;;7348313;19;110184;-91
2022/07/16 04:06:39;;;;;;;10.35;3.20;;;15.50;99.90;;;;;;7348275;19;109328;-90
2022/07/16 04:09:06;;;;;;;7.75;3.28;;;15.40;99.90;;;;;;7347050;19;111043;-91
2022/07/16 04:11:33;;;;;;;5.88;3.08;;;15.30;99.90;;;;;;7347422;19;109938;-90
2022/07/16 04:14:00;;;;;;;3.55;2.58;;;15.30;99.90;;;;;;7348408;19;111819;-91
2022/07/16 04:16:27;;;;;;;6.75;2.80;;;15.30;99.90;;;;;;7345985;19;109334;-88
2022/07/16 04:18:54;;;;;;;5.53;2.50;;;15.40;99.90;;;;;;7349615;19;108798;-87
2022/07/16 04:21:21;;;;;;;;;;;15.30;99.90;;;;;;7344933;19;107518;-87
2022/07/16 04:23:48;;;;;;;8.65;3.22;;;15.30;99.90;;;;;;7347335;19;107836;-87
2022/07/16 04:26:15;;;;;;;5.13;2.85;;;15.20;99.90;;;;;;7342386;19;108795;-88
2022/07/16 04:28:42;;;;;;;5.60;2.60;;;15.20;99.90;;;;;;7344664;19;108287;-87
2022/07/16 04:31:09;;;;;;;5.40;3.20;;;15.30;99.90;;;;;;7342882;19;110820;-87
2022/07/16 04:33:36;;;;;;;4.55;2.72;;;15.30;99.90;;;;;;7341342;19;108969;-87
2022/07/16 04:36:04;;;;;;;3.42;2.63;;;15.40;99.90;;;;;;7344921;19;107935;-88
2022/07/16 04:38:31;;;;;;;6.47;3.13;;;15.40;99.90;;;;;;7342349;19;107031;-88
2022/07/16 04:40:58;;;;;;;4.22;2.85;;;15.40;99.90;;;;;;7345679;19;109061;-88
2022/07/16 04:43:27;;;;;;;8.23;2.97;;;15.40;99.90;;;;;;7341035;19;108544;-88
2022/07/16 04:45:54;;;;;;;7.75;3.42;;;15.40;99.90;;;;;;7342134;19;112346;-87
2022/07/16 04:48:22;;;;;;;8.50;3.35;;;15.40;99.90;;;;;;7340427;19;108017;-87
2022/07/16 04:50:49;;;;;;;5.53;3.13;;;15.30;99.90;;;;;;7342703;19;108619;-88
2022/07/16 04:53:16;;;;;;;6.65;3.00;;;15.30;99.90;;;;;;7341557;19;110524;-87
2022/07/16 04:55:43;;;;;;;4.65;3.00;;;15.30;99.90;;;;;;7342572;19;107957;-87
2022/07/16 04:58:10;;;;;;;7.15;3.60;;;15.30;99.90;;;;;;7342584;19;108291;-87
2022/07/16 05:00:37;;;;;;;5.85;2.95;;;15.40;99.90;;;;;;7341828;19;109077;-87
2022/07/16 05:03:06;;;;;;;5.53;2.97;;;15.50;99.90;;;;;;7341201;19;107154;-87
2022/07/16 05:05:37;;;;;;;7.97;3.40;;;15.50;99.90;;;;;;7341302;19;108679;-88
2022/07/16 05:08:07;;;;;;;5.22;3.00;;;15.60;99.90;;;;;;7342274;19;111045;-86
2022/07/16 05:10:35;;;;;;;4.97;3.03;;;15.70;99.90;;;;;;7339262;19;108643;-87
2022/07/16 05:13:02;;;;;;;5.43;3.25;;;15.80;99.90;;;;;;7342080;19;109428;-87
2022/07/16 05:15:30;;;;;;;4.55;3.17;;;15.90;99.90;;;;;;7342617;19;107960;-86
2022/07/16 05:17:57;;;;;;;7.35;3.33;;;16.00;99.90;;;;;;7338415;19;108158;-89
2022/07/16 05:20:25;;;;;;;8.80;3.47;;;16.00;99.90;;;;;;7342025;19;108255;-87
2022/07/16 05:22:52;;;;;;;6.05;3.60;;;16.10;99.90;;;;;;7345263;19;108494;-86
2022/07/16 05:25:19;;;;;;;5.80;3.42;;;16.10;99.90;;;;;;7340420;19;109212;-87
2022/07/16 05:27:47;;;;;;;5.00;3.30;;;16.20;99.90;;;;;;7341600;19;108540;-87
2022/07/16 05:30:14;;;;;;;7.25;3.38;;;16.30;99.90;;;;;;7339624;19;108557;-86
2022/07/16 05:32:43;;;;;;;8.98;3.42;;;16.30;99.90;;;;;;7340685;19;108357;-87
2022/07/16 05:35:11;;;;;;;6.60;3.80;;;16.40;99.90;;;;;;7341076;19;107856;-87
2022/07/16 05:37:39;;;;;;;8.85;3.20;;;16.40;99.90;;;;;;7341454;19;107905;-87
2022/07/16 05:40:07;;;;;;;4.95;3.33;;;16.50;99.90;;;;;;7337727;19;109425;-89
2022/07/16 05:42:34;;;;;;;5.93;3.88;;;16.60;99.90;;;;;;7338218;19;110628;-88
2022/07/16 05:45:02;;;;;;;6.90;3.60;;;16.70;99.90;;;;;;7344263;19;108278;-88
2022/07/16 05:47:32;;;;;;;10.38;3.80;;;16.80;99.90;;;;;;7338641;19;108459;-87
2022/07/16 05:50:00;;;;;;;8.00;3.83;;;16.90;99.90;;;;;;7340080;19;107969;-88
2022/07/16 05:52:27;;;;;;;4.85;3.65;;;17.00;99.90;;;;;;7340008;19;109281;-90
2022/07/16 05:54:54;;;;;;;8.10;3.45;;;17.00;99.90;;;;;;7340979;19;107456;-89
2022/07/16 05:57:21;;;;;;;7.15;4.00;;;17.20;99.90;;;;;;7344255;19;107144;-93
2022/07/16 05:59:48;;;;;;;5.25;3.70;;;17.30;99.90;;;;;;7345288;19;108617;-92
2022/07/16 06:02:15;;;;;;;6.50;3.83;;;17.40;99.90;;;;;;7345580;19;110452;-93
2022/07/16 06:04:42;;;;;;;7.30;3.55;;;17.50;99.90;;;;;;7344629;19;110228;-90
2022/07/16 06:07:09;;;;;;;8.98;3.92;;;17.60;99.90;;;;;;7350194;19;109025;-92
2022/07/16 06:09:36;;;;;;;7.35;3.63;;;17.70;99.90;;;;;;7347274;19;111189;-92
2022/07/16 06:12:04;;;;;;;9.52;3.53;;;17.70;99.90;;;;;;7346433;19;110323;-93
2022/07/16 06:14:31;;;;;;;7.50;3.95;;;17.80;99.90;;;;;;7347635;19;108288;-92
2022/07/16 06:16:58;;;;;;;5.25;3.85;;;17.90;99.90;;;;;;7346459;19;109427;-92
2022/07/16 06:19:26;;;;;;;7.63;3.78;;;17.90;99.90;;;;;;7345645;19;111559;-93
2022/07/16 06:21:53;;;;;;;6.50;3.80;;;18.00;99.90;;;;;;7351952;19;109837;-93
2022/07/16 06:24:20;;;;;;;6.78;3.08;;;18.10;99.90;;;;;;7353058;19;110347;-94
2022/07/16 06:26:47;;;;;;;10.88;4.13;;;18.20;99.90;;;;;;7353955;19;111668;-93
2022/07/16 06:29:15;;;;;;;7.05;3.88;;;18.40;99.90;;;;;;7358162;19;107996;-95
2022/07/16 06:31:44;;;;;;;8.73;3.72;;;18.50;99.90;;;;;;7352820;19;111374;-93
2022/07/16 06:34:12;;;;;;;10.18;3.70;;;18.60;99.90;;;;;;7351648;19;110902;-94
2022/07/16 06:36:41;;;;;;;9.10;3.53;;;18.70;99.90;;;;;;7353080;19;107091;-93
2022/07/16 06:39:08;;;;;;;7.30;3.13;;;18.80;99.90;;;;;;7351291;19;111289;-93
2022/07/16 06:41:39;;;;;;;3.58;2.70;;;18.90;99.90;;;;;;7350745;19;107571;-92
2022/07/16 06:44:09;;;;;;;6.88;2.42;;;19.10;99.90;;;;;;7349713;19;110800;-92
2022/07/16 06:46:36;;;;;;;5.70;2.10;;;19.20;99.90;;;;;;7350750;19;110544;-91
2022/07/16 06:49:03;;;;;;;12.25;2.33;;;19.30;99.90;;;;;;7350496;19;108433;-91
2022/07/16 06:51:31;;;;;;;5.35;1.75;;;19.50;99.90;;;;;;7354876;19;110356;-91
2022/07/16 06:53:58;;;;;;;2.78;1.55;;;19.60;99.90;;;;;;7349733;19;109110;-92
2022/07/16 06:56:26;;;;;;;2.75;1.67;;;19.60;99.90;;;;;;7349237;19;108919;-92
2022/07/16 06:58:53;;;;;;;5.72;2.05;;;19.70;99.90;;;;;;7350428;19;110371;-94
2022/07/16 07:01:20;;;;;;;4.82;2.00;;;19.70;99.90;;;;;;7348351;19;108739;-91
2022/07/16 07:03:47;;;;;;;3.90;1.73;;;19.70;99.90;;;;;;7346596;19;110698;-89
2022/07/16 07:06:15;;;;;;;5.00;2.00;;;19.80;99.90;;;;;;7350650;19;109373;-88
2022/07/16 07:08:43;;;;;;;2.13;1.67;;;19.90;99.90;;;;;;7343580;19;107651;-88
2022/07/16 07:11:17;;;;;;;5.15;1.95;;;19.90;99.90;;;;;;7349610;19;107930;-87
2022/07/16 07:13:44;;;;;;;7.22;2.22;;;20.00;99.90;;;;;;7345591;19;111513;-88
2022/07/16 07:16:12;;;;;;;4.78;1.88;;;20.10;99.90;;;;;;7343263;19;108484;-88
2022/07/16 07:18:39;;;;;;;5.00;1.90;;;20.20;99.90;;;;;;7342417;19;108789;-88
2022/07/16 07:21:06;;;;;;;4.10;2.17;;;20.30;99.90;;;;;;7342131;19;107767;-88
2022/07/16 07:23:33;;;;;;;4.13;2.00;;;20.30;99.90;;;;;;7340555;19;108372;-87
2022/07/16 07:26:00;;;;;;;4.35;1.70;;;20.30;99.90;;;;;;7344733;19;109120;-89
2022/07/16 07:28:28;;;;;;;5.82;1.40;;;20.30;99.90;;;;;;7341510;19;111067;-88
2022/07/16 07:30:56;;;;;;;5.50;1.58;;;20.40;99.90;;;;;;7343181;19;107886;-88
2022/07/16 07:33:24;;;;;;;3.22;1.48;;;20.40;99.90;;;;;;7345843;19;111422;-88
2022/07/16 07:35:51;;;;;;;5.57;1.20;;;20.60;99.90;;;;;;7345059;19;108181;-88
2022/07/16 07:38:18;;;;;;;3.38;1.17;;;20.60;99.90;;;;;;7342263;19;108330;-88
2022/07/16 07:40:46;;;;;;;5.40;1.25;;;20.60;99.90;;;;;;7341705;19;111170;-90
2022/07/16 07:43:14;;;;;;;6.63;1.00;;;20.60;99.90;;;;;;7344481;19;108595;-89
2022/07/16 07:45:41;;;;;;;8.85;1.00;;;20.60;99.90;;;;;;7342696;19;108913;-89
2022/07/16 07:48:08;;;;;;;4.40;1.08;;;20.70;99.90;;;;;;7341893;19;109699;-89
2022/07/16 07:50:35;;;;;;;3.17;1.10;;;21.00;99.90;;;;;;7343087;19;107544;-87
2022/07/16 07:53:03;;;;;;;2.65;0.85;;;21.10;99.90;;;;;;7343354;19;107786;-87
2022/07/16 07:55:30;;;;;;;1.13;0.60;;;21.30;99.90;;;;;;7350755;19;108590;-89
2022/07/16 07:57:58;;;;;;;3.38;0.60;;;21.30;99.90;;;;;;7342719;19;111994;-89
2022/07/16 08:00:25;;;;;;;1.83;0.80;;;21.40;99.90;;;;;;7341684;19;107606;-89
2022/07/16 08:02:54;;;;;;;2.25;0.60;;;21.40;99.90;;;;;;7342437;19;110632;-89
2022/07/16 08:05:21;;;;;;;2.13;0.70;;;21.40;99.90;;;;;;7344461;19;109344;-89
2022/07/16 08:07:48;;;;;;;3.88;0.73;;;21.50;99.90;;;;;;7346402;19;106893;-89
2022/07/16 08:10:15;;;;;;;1.48;0.73;;;21.50;99.90;;;;;;7346907;19;108576;-89
2022/07/16 08:12:43;;;;;;;3.13;0.95;;;21.70;99.90;;;;;;7341023;19;111594;-89
2022/07/16 08:15:10;;;;;;;2.85;0.73;;;21.80;99.90;;;;;;7344229;19;107997;-90
2022/07/16 08:17:40;;;;;;;2.25;0.60;;;21.80;99.70;;;;;;7357437;19;108515;-92
2022/07/16 08:20:09;;;;;;;3.33;0.55;;;21.70;97.90;;;;;;7344432;19;107856;-89
2022/07/16 08:22:37;;;;;;;2.95;0.90;;;21.60;97.70;;;;;;7341528;19;111111;-90
2022/07/16 08:27:51;;;;;;;34.83;2.33;;;21.60;97.50;;;;;;7344359;19;109330;-87
2022/07/16 08:30:18;;;;;;;2.08;0.73;;;21.90;98.20;;;;;;7341768;19;110987;-90
2022/07/16 08:32:45;;;;;;;5.20;0.90;;;22.00;97.60;;;;;;7337924;19;111745;-90
2022/07/16 08:35:12;;;;;;;1.88;0.60;;;22.10;98.20;;;;;;7341840;19;110574;-89
2022/07/16 08:37:43;;;;;;;12.65;0.88;;;22.20;95.20;;;;;;7340960;19;108413;-88
2022/07/16 08:40:16;;;;;;;1.88;0.50;;;22.20;95.70;;;;;;7344598;19;109039;-89
2022/07/16 08:42:44;;;;;;;6.43;0.77;;;22.30;95.40;;;;;;7338113;19;112382;-89
2022/07/16 08:45:13;;;;;;;2.13;0.65;;;22.20;95.40;;;;;;7337758;19;111803;-90
2022/07/16 08:47:40;;;;;;;0.80;0.57;;;22.00;95.00;;;;;;7338485;19;109425;-88
2022/07/16 08:50:14;;;;;;;1.58;0.47;;;21.90;95.50;;;;;;7340590;19;108583;-90
2022/07/16 08:52:47;;;;;;;1.25;0.50;;;21.90;95.20;;;;;;7338808;19;109407;-89
2022/07/16 08:55:15;;;;;;;4.22;0.90;;;22.00;94.60;;;;;;7338850;19;107921;-89
2022/07/16 08:57:46;;;;;;;1.88;0.50;;;22.20;94.60;;;;;;7340189;19;108335;-89
2022/07/16 09:00:13;;;;;;;2.30;0.60;;;22.40;94.70;;;;;;7339135;19;108987;-88
2022/07/16 09:02:41;;;;;;;2.38;0.80;;;22.60;93.90;;;;;;7342773;19;107784;-88
2022/07/16 09:05:08;;;;;;;1.48;0.50;;;22.80;94.00;;;;;;7334601;19;109210;-87
2022/07/16 09:07:36;;;;;;;1.75;0.50;;;22.80;92.80;;;;;;7340391;19;108527;-88
2022/07/16 09:10:05;;;;;;;1.70;0.60;;;22.70;92.80;;;;;;7339747;19;108511;-90
2022/07/16 09:12:44;;;;;;;1.05;0.65;;;22.60;93.80;;;;;;7344131;19;109371;-90
2022/07/16 09:15:32;;;;;;;4.78;0.80;;;22.70;93.50;;;;;;7341917;19;110737;-88
2022/07/16 09:18:12;;;;;;;6.78;0.80;;;22.70;93.20;;;;;;7339937;19;110830;-90
2022/07/16 09:20:43;;;;;;;3.38;0.70;;;22.80;92.80;;;;;;7339398;19;110905;-88
2022/07/16 09:23:38;;;;;;;2.38;0.43;;;22.90;92.50;;;;;;7345749;19;107653;-88
2022/07/16 09:26:08;;;;;;;2.15;0.60;;;23.00;92.20;;;;;;7337005;19;109592;-88
2022/07/16 09:28:49;;;;;;;1.90;0.50;;;23.20;92.80;;;;;;7340568;19;108089;-89
2022/07/16 09:31:39;;;;;;;10.05;0.52;;;23.20;90.80;;;;;;7337613;19;111023;-90
2022/07/16 09:34:09;;;;;;;3.70;0.60;;;23.20;90.00;;;;;;7341073;19;108434;-89
2022/07/16 09:36:38;;;;;;;3.53;0.70;;;22.90;90.40;;;;;;7340523;19;110778;-88
2022/07/16 09:39:08;;;;;;;4.40;0.60;;;23.00;90.80;;;;;;7339271;19;107984;-88
2022/07/16 09:41:43;;;;;;;2.03;0.60;;;23.00;90.70;;;;;;7334626;19;112367;-88
2022/07/16 09:44:22;;;;;;;1.05;0.50;;;23.00;89.80;;;;;;7341249;19;108443;-88
2022/07/16 09:46:59;;;;;;;5.07;0.68;;;23.00;90.00;;;;;;7342537;19;110482;-89
2022/07/16 09:49:28;;;;;;;1.25;0.50;;;23.10;90.50;;;;;;7336158;19;108482;-89
2022/07/16 09:51:56;;;;;;;3.83;0.75;;;23.40;90.60;;;;;;7340600;19;110943;-89
2022/07/16 09:54:39;;;;;;;2.03;0.60;;;23.30;89.10;;;;;;7339743;19;109035;-89
2022/07/16 09:57:17;;;;;;;2.08;0.68;;;23.20;88.20;;;;;;7344004;19;111449;-89
2022/07/16 09:59:46;;;;;;;3.33;0.68;;;23.00;88.50;;;;;;7347072;19;108492;-89
2022/07/16 10:02:27;;;;;;;1.60;0.60;;;23.00;90.10;;;;;;7339890;19;110783;-89
2022/07/16 10:04:58;;;;;;;2.45;0.68;;;23.10;90.30;;;;;;7342909;19;108676;-90
2022/07/16 10:07:32;;;;;;;2.00;0.82;;;23.30;90.00;;;;;;7345379;19;109914;-90
2022/07/16 10:09:59;;;;;;;2.97;0.50;;;23.50;88.40;;;;;;7351761;19;109485;-90
2022/07/16 10:12:29;;;;;;;4.18;0.60;;;23.60;88.90;;;;;;7348974;19;108353;-90
2022/07/16 10:14:58;;;;;;;1.52;0.55;;;23.60;87.70;;;;;;7346775;19;108959;-89
2022/07/16 10:17:34;;;;;;;2.88;0.60;;;23.40;90.00;;;;;;7344958;19;108537;-91
2022/07/16 10:20:09;;;;;;;5.85;0.70;;;23.60;89.30;;;;;;7345926;19;108244;-89
2022/07/16 10:22:42;;;;;;;3.58;0.60;;;23.60;88.80;;;;;;7345680;19;109205;-91
2022/07/16 10:25:16;;;;;;;2.20;0.70;;;23.80;86.00;;;;;;7342781;19;108373;-90
2022/07/16 10:27:44;;;;;;;1.17;0.57;;;23.70;83.20;;;;;;7344405;19;108450;-89
2022/07/16 10:30:24;;;;;;;2.38;0.55;;;23.80;85.50;;;;;;7344560;19;108629;-88
2022/07/16 10:33:05;;;;;;;6.22;0.70;;;23.90;86.90;;;;;;7348816;19;108961;-89
2022/07/16 10:35:38;;;;;;;3.45;0.55;;;24.10;85.90;;;;;;7341473;19;108377;-90
2022/07/16 10:38:21;;;;;;;2.65;0.60;;;24.10;84.70;;;;;;7345833;19;110279;-90
2022/07/16 10:41:09;;;;;;;3.08;0.60;;;24.10;84.60;;;;;;7341530;19;111120;-89
2022/07/16 10:43:37;;;;;;;3.72;0.77;;;24.30;83.30;;;;;;7344122;19;109757;-90
2022/07/16 10:46:07;;;;;;;8.63;0.70;;;24.30;85.80;;;;;;7343889;19;108365;-91
2022/07/16 10:48:37;;;;;;;3.65;1.10;;;24.20;83.90;;;;;;7343514;19;107273;-90
2022/07/16 10:51:14;;;;;;;2.28;0.73;;;24.00;83.40;;;;;;7346459;19;109102;-92
2022/07/16 10:54:02;;;;;;;;;;;24.10;81.80;;;;;;7348586;19;109538;-90
2022/07/16 10:56:33;;;;;;;2.40;0.60;;;24.10;81.80;;;;;;7353576;19;111818;-91
2022/07/16 10:59:09;;;;;;;1.80;0.68;;;24.10;82.30;;;;;;7346490;19;107314;-88
2022/07/16 11:01:38;;;;;;;2.20;0.60;;;24.00;80.70;;;;;;7347330;19;110771;-89
2022/07/16 11:04:06;;;;;;;1.48;0.60;;;24.10;81.40;;;;;;7341670;19;109096;-87
2022/07/16 11:06:34;;;;;;;2.55;0.52;;;24.10;82.40;;;;;;7344911;19;109684;-91
2022/07/16 11:09:03;;;;;;;3.80;0.50;;;24.30;82.80;;;;;;7347246;19;110384;-88
2022/07/16 11:11:38;;;;;;;1.73;0.50;;;24.50;79.10;;;;;;7343141;19;109101;-89
2022/07/16 11:14:07;;;;;;;3.85;0.70;;;24.50;79.30;;;;;;7343327;19;109257;-91
2022/07/16 11:16:35;;;;;;;1.38;0.50;;;24.50;80.10;;;;;;7347608;19;108299;-89
2022/07/16 11:19:03;;;;;;;4.55;0.70;;;24.70;81.80;;;;;;7352786;19;109646;-90
2022/07/16 11:21:31;;;;;;;2.25;0.60;;;24.80;79.80;;;;;;7345738;19;108393;-92
2022/07/16 11:24:00;;;;;;;5.97;0.80;;;24.90;78.70;;;;;;7342949;19;107637;-89
2022/07/16 11:26:28;;;;;;;5.35;0.73;;;24.90;78.90;;;;;;7347411;19;108394;-90
2022/07/16 11:29:00;;;;;;;1.83;0.70;;;24.90;79.00;;;;;;7347304;19;108891;-89
2022/07/16 11:31:32;;;;;;;2.45;0.75;;;25.00;80.20;;;;;;7345018;19;108598;-91
2022/07/16 11:34:07;;;;;;;2.00;0.60;;;25.10;80.00;;;;;;7344286;19;107261;-90
2022/07/16 11:36:43;;;;;;;15.15;0.70;;;25.10;80.20;;;;;;7344248;19;108862;-88
2022/07/16 11:39:11;;;;;;;3.03;0.70;;;25.20;79.00;;;;;;7347124;19;109874;-89
2022/07/16 11:41:40;;;;;;;1.42;0.50;;;25.30;78.20;;;;;;7343225;19;108007;-90
2022/07/16 11:44:24;;;;;;;4.97;0.60;;;25.30;79.10;;;;;;7344768;19;112630;-88
2022/07/16 11:46:52;;;;;;;2.30;0.60;;;25.30;77.40;;;;;;7345910;19;109177;-87
2022/07/16 11:49:30;;;;;;;2.70;0.82;;;25.30;77.90;;;;;;7344372;19;111164;-88
2022/07/16 11:52:04;;;;;;;1.88;0.85;;;25.60;76.20;;;;;;7345156;19;108783;-89
2022/07/16 11:54:39;;;;;;;2.60;0.63;;;25.60;76.00;;;;;;7342401;19;107962;-90
2022/07/16 11:57:11;;;;;;;2.42;0.80;;;25.70;77.10;;;;;;7349680;19;109068;-90
2022/07/16 11:59:55;;;;;;;1.85;0.60;;;25.80;75.70;;;;;;7353960;19;109727;-94
2022/07/16 12:02:27;;;;;;;4.53;0.93;;;25.80;75.60;;;;;;7365865;19;109280;-96
2022/07/16 12:04:58;;;;;;;3.50;0.70;;;25.90;73.10;;;;;;7350401;19;108903;-95
2022/07/16 12:07:25;;;;;;;3.08;0.68;;;25.90;73.90;;;;;;7353732;19;109975;-95
2022/07/16 12:09:58;;;;;;;3.45;0.98;;;25.90;73.60;;;;;;7351321;19;106671;-95
2022/07/16 12:12:28;;;;;;;4.38;0.65;;;25.80;73.30;;;;;;7355784;19;110693;-94
2022/07/16 12:15:01;;;;;;;3.10;0.60;;;25.80;72.70;;;;;;7355469;19;110368;-96
2022/07/16 12:17:45;;;;;;;5.18;0.90;;;26.00;73.10;;;;;;7354631;19;109574;-95
2022/07/16 12:20:17;;;;;;;2.72;0.80;;;26.20;72.40;;;;;;7355082;19;107275;-95
2022/07/16 12:22:56;;;;;;;1.85;0.85;;;26.30;71.70;;;;;;7354484;19;109708;-95
2022/07/16 12:25:28;;;;;;;19.23;1.05;;;26.50;73.30;;;;;;7357321;19;109503;-96
2022/07/16 12:27:59;;;;;;;1.52;0.90;;;26.30;69.50;;;;;;7348439;19;109070;-94
2022/07/16 12:30:43;;;;;;;3.42;0.98;;;25.80;70.90;;;;;;7347748;19;111002;-94
2022/07/16 12:33:16;;;;;;;3.78;0.77;;;25.60;70.90;;;;;;7355264;19;108891;-96
2022/07/16 12:35:47;;;;;;;4.07;1.10;;;25.60;71.40;;;;;;7345575;19;109292;-93
2022/07/16 12:38:37;;;;;;;3.78;1.00;;;25.60;71.90;;;;;;7343034;19;110923;-92
2022/07/16 12:41:08;;;;;;;4.95;0.70;;;25.70;72.60;;;;;;7341464;19;109051;-92
2022/07/16 12:43:35;;;;;;;2.65;0.60;;;25.80;71.50;;;;;;7345159;19;107882;-94
2022/07/16 12:46:03;;;;;;;4.55;0.80;;;25.80;71.40;;;;;;7343419;19;110793;-93
2022/07/16 12:48:32;;;;;;;2.63;0.80;;;25.60;70.20;;;;;;7350317;19;107569;-95
2022/07/16 12:50:59;;;;;;;2.75;0.90;;;25.70;71.10;;;;;;7346209;19;110951;-93